sensor_id;sensor_type;location;lat;lon;timestamp;temperature;humidity
5009;DHT22;2523;51.058;6.922;2023-11-22T00:00:27;6.70;99.90
5009;DHT22;2523;51.058;6.922;2023-11-22T00:06:15;6.80;99.90
5009;DHT22;2523;51.058;6.922;2023-11-22T00:08:41;6.80;99.90
5009;DHT22;2523;51.058;6.922;2023-11-22T00:11:07;6.90;99.90
5009;DHT22;2523;51.058;6.922;2023-11-22T00:13:32;6.90;99.90
5009;DHT22;2523;51.058;6.922;2023-11-22T00:15:58;6.90;99.90
5009;DHT22;2523;51.058;6.922;2023-11-22T00:18:23;6.90;99.90
5009;DHT22;2523;51.058;6.922;2023-11-22T00:20:50;6.90;99.90
5009;DHT22;2523;51.058;6.922;2023-11-22T00:23:15;6.90;99.90
5009;DHT22;2523;51.058;6.922;2023-11-22T00:25:41;6.90;99.90
5009;DHT22;2523;51.058;6.922;2023-11-22T00:28:07;6.90;99.90
5009;DHT22;2523;51.058;6.922;2023-11-22T00:30:34;6.90;99.90
5009;DHT22;2523;51.058;6.922;2023-11-22T00:33:03;6.90;99.90
5009;DHT22;2523;51.058;6.922;2023-11-22T00:35:30;6.90;99.90
5009;DHT22;2523;51.058;6.922;2023-11-22T00:37:55;6.90;99.90
5009;DHT22;2523;51.058;6.922;2023-11-22T00:40:21;6.90;99.90
5009;DHT22;2523;51.058;6.922;2023-11-22T00:42:46;6.80;99.90
5009;DHT22;2523;51.058;6.922;2023-11-22T00:45:12;6.80;99.90
5009;DHT22;2523;51.058;6.922;2023-11-22T00:47:38;6.80;99.90
5009;DHT22;2523;51.058;6.922;2023-11-22T00:50:04;6.80;99.90
5009;DHT22;2523;51.058;6.922;2023-11-22T00:52:33;6.80;99.90
5009;DHT22;2523;51.058;6.922;2023-11-22T00:54:59;6.80;99.90
5009;DHT22;2523;51.058;6.922;2023-11-22T00:57:25;6.80;99.90
5009;DHT22;2523;51.058;6.922;2023-11-22T01:03:14;6.80;99.90
5009;DHT22;2523;51.058;6.922;2023-11-22T01:05:39;6.80;99.90
5009;DHT22;2523;51.058;6.922;2023-11-22T01:08:05;6.80;99.90
5009;DHT22;2523;51.058;6.922;2023-11-22T01:10:31;6.70;99.90
5009;DHT22;2523;51.058;6.922;2023-11-22T01:12:56;6.70;99.90
5009;DHT22;2523;51.058;6.922;2023-11-22T01:15:22;6.70;99.90
5009;DHT22;2523;51.058;6.922;2023-11-22T01:17:48;6.80;99.90
5009;DHT22;2523;51.058;6.922;2023-11-22T01:20:14;6.70;99.90
5009;DHT22;2523;51.058;6.922;2023-11-22T01:22:40;6.70;99.90
5009;DHT22;2523;51.058;6.922;2023-11-22T01:25:05;6.70;99.90
5009;DHT22;2523;51.058;6.922;2023-11-22T01:27:31;6.70;99.90
5009;DHT22;2523;51.058;6.922;2023-11-22T01:29:57;6.70;99.90
5009;DHT22;2523;51.058;6.922;2023-11-22T01:32:22;6.70;99.90
5009;DHT22;2523;51.058;6.922;2023-11-22T01:34:48;6.70;99.90
5009;DHT22;2523;51.058;6.922;2023-11-22T01:37:13;6.70;99.90
5009;DHT22;2523;51.058;6.922;2023-11-22T01:39:39;6.70;99.90
5009;DHT22;2523;51.058;6.922;2023-11-22T01:42:07;6.70;99.90
5009;DHT22;2523;51.058;6.922;2023-11-22T01:44:33;6.70;99.90
5009;DHT22;2523;51.058;6.922;2023-11-22T01:46:58;6.70;99.90
5009;DHT22;2523;51.058;6.922;2023-11-22T01:49:24;6.70;99.90
5009;DHT22;2523;51.058;6.922;2023-11-22T01:55:12;6.60;99.90
5009;DHT22;2523;51.058;6.922;2023-11-22T01:57:39;6.60;99.90
5009;DHT22;2523;51.058;6.922;2023-11-22T02:00:06;6.60;99.90
5009;DHT22;2523;51.058;6.922;2023-11-22T02:02:40;6.60;99.90
5009;DHT22;2523;51.058;6.922;2023-11-22T02:05:05;6.60;99.90
5009;DHT22;2523;51.058;6.922;2023-11-22T02:07:31;6.50;99.90
5009;DHT22;2523;51.058;6.922;2023-11-22T02:10:00;6.50;99.90
5009;DHT22;2523;51.058;6.922;2023-11-22T02:12:28;6.50;99.90
5009;DHT22;2523;51.058;6.922;2023-11-22T02:21:37;6.50;99.90
5009;DHT22;2523;51.058;6.922;2023-11-22T02:24:03;6.50;99.90
5009;DHT22;2523;51.058;6.922;2023-11-22T02:29:54;6.50;99.90
5009;DHT22;2523;51.058;6.922;2023-11-22T02:32:22;6.50;99.90
5009;DHT22;2523;51.058;6.922;2023-11-22T02:38:14;6.40;99.90
5009;DHT22;2523;51.058;6.922;2023-11-22T02:44:02;6.40;99.90
5009;DHT22;2523;51.058;6.922;2023-11-22T02:46:27;6.40;99.90
5009;DHT22;2523;51.058;6.922;2023-11-22T02:48:54;6.40;99.90
5009;DHT22;2523;51.058;6.922;2023-11-22T02:51:20;6.30;99.90
5009;DHT22;2523;51.058;6.922;2023-11-22T02:53:50;6.30;99.90
5009;DHT22;2523;51.058;6.922;2023-11-22T02:56:16;6.30;99.90
5009;DHT22;2523;51.058;6.922;2023-11-22T02:58:42;6.20;99.90
5009;DHT22;2523;51.058;6.922;2023-11-22T03:04:29;6.20;99.90
5009;DHT22;2523;51.058;6.922;2023-11-22T03:06:55;6.10;99.90
5009;DHT22;2523;51.058;6.922;2023-11-22T03:09:20;6.10;99.90
5009;DHT22;2523;51.058;6.922;2023-11-22T03:11:48;6.10;99.90
5009;DHT22;2523;51.058;6.922;2023-11-22T03:14:13;6.10;99.90
5009;DHT22;2523;51.058;6.922;2023-11-22T03:16:41;6.10;99.90
5009;DHT22;2523;51.058;6.922;2023-11-22T03:19:08;6.10;99.90
5009;DHT22;2523;51.058;6.922;2023-11-22T03:21:33;6.00;99.90
5009;DHT22;2523;51.058;6.922;2023-11-22T03:24:01;6.00;99.90
5009;DHT22;2523;51.058;6.922;2023-11-22T03:26:29;5.90;99.90
5009;DHT22;2523;51.058;6.922;2023-11-22T03:32:42;5.90;99.90
5009;DHT22;2523;51.058;6.922;2023-11-22T03:35:09;5.80;99.90
5009;DHT22;2523;51.058;6.922;2023-11-22T03:44:19;5.70;99.90
5009;DHT22;2523;51.058;6.922;2023-11-22T03:46:45;5.70;99.90
5009;DHT22;2523;51.058;6.922;2023-11-22T03:49:10;5.60;99.90
5009;DHT22;2523;51.058;6.922;2023-11-22T03:51:37;5.60;99.90
5009;DHT22;2523;51.058;6.922;2023-11-22T03:57:25;5.50;99.90
5009;DHT22;2523;51.058;6.922;2023-11-22T03:59:50;5.50;99.90
5009;DHT22;2523;51.058;6.922;2023-11-22T04:02:16;5.50;99.90
5009;DHT22;2523;51.058;6.922;2023-11-22T04:04:42;5.50;99.90
5009;DHT22;2523;51.058;6.922;2023-11-22T04:07:08;5.40;99.90
5009;DHT22;2523;51.058;6.922;2023-11-22T04:09:33;5.40;99.90
5009;DHT22;2523;51.058;6.922;2023-11-22T04:11:59;5.30;99.90
5009;DHT22;2523;51.058;6.922;2023-11-22T04:14:25;5.30;99.90
5009;DHT22;2523;51.058;6.922;2023-11-22T04:16:53;5.30;99.90
5009;DHT22;2523;51.058;6.922;2023-11-22T04:19:18;5.30;99.90
5009;DHT22;2523;51.058;6.922;2023-11-22T04:21:44;5.20;99.90
5009;DHT22;2523;51.058;6.922;2023-11-22T04:24:09;5.20;99.90
5009;DHT22;2523;51.058;6.922;2023-11-22T04:26:35;5.20;99.90
5009;DHT22;2523;51.058;6.922;2023-11-22T04:29:01;5.20;99.90
5009;DHT22;2523;51.058;6.922;2023-11-22T04:31:27;5.20;99.90
5009;DHT22;2523;51.058;6.922;2023-11-22T04:33:52;5.10;99.90
5009;DHT22;2523;51.058;6.922;2023-11-22T04:36:19;5.10;99.90
5009;DHT22;2523;51.058;6.922;2023-11-22T04:38:45;5.00;99.90
5009;DHT22;2523;51.058;6.922;2023-11-22T04:41:10;5.00;99.90
5009;DHT22;2523;51.058;6.922;2023-11-22T04:43:36;4.90;99.90
5009;DHT22;2523;51.058;6.922;2023-11-22T04:46:02;4.90;99.90
5009;DHT22;2523;51.058;6.922;2023-11-22T04:48:30;4.90;99.90
5009;DHT22;2523;51.058;6.922;2023-11-22T04:50:56;4.90;99.90
5009;DHT22;2523;51.058;6.922;2023-11-22T04:53:21;4.90;99.90
5009;DHT22;2523;51.058;6.922;2023-11-22T04:55:47;4.90;99.90
5009;DHT22;2523;51.058;6.922;2023-11-22T04:58:14;4.80;99.90
5009;DHT22;2523;51.058;6.922;2023-11-22T05:00:39;4.80;99.90
5009;DHT22;2523;51.058;6.922;2023-11-22T05:03:05;4.80;99.90
5009;DHT22;2523;51.058;6.922;2023-11-22T05:05:31;4.80;99.90
5009;DHT22;2523;51.058;6.922;2023-11-22T05:07:57;4.70;99.90
5009;DHT22;2523;51.058;6.922;2023-11-22T05:10:22;4.70;99.90
5009;DHT22;2523;51.058;6.922;2023-11-22T05:12:48;4.70;99.90
5009;DHT22;2523;51.058;6.922;2023-11-22T05:15:13;4.70;99.90
5009;DHT22;2523;51.058;6.922;2023-11-22T05:17:39;4.70;99.90
5009;DHT22;2523;51.058;6.922;2023-11-22T05:20:06;4.70;99.90
5009;DHT22;2523;51.058;6.922;2023-11-22T05:22:35;4.70;99.90
5009;DHT22;2523;51.058;6.922;2023-11-22T05:25:00;4.70;99.90
5009;DHT22;2523;51.058;6.922;2023-11-22T05:27:26;4.70;99.90
5009;DHT22;2523;51.058;6.922;2023-11-22T05:29:51;4.60;99.90
5009;DHT22;2523;51.058;6.922;2023-11-22T05:32:17;4.60;99.90
5009;DHT22;2523;51.058;6.922;2023-11-22T05:34:42;4.60;99.90
5009;DHT22;2523;51.058;6.922;2023-11-22T05:37:10;4.60;99.90
5009;DHT22;2523;51.058;6.922;2023-11-22T05:39:35;4.50;99.90
5009;DHT22;2523;51.058;6.922;2023-11-22T05:42:02;4.50;99.90
5009;DHT22;2523;51.058;6.922;2023-11-22T05:47:50;4.60;99.90
5009;DHT22;2523;51.058;6.922;2023-11-22T05:50:16;4.50;99.90
5009;DHT22;2523;51.058;6.922;2023-11-22T05:52:42;4.50;99.90
5009;DHT22;2523;51.058;6.922;2023-11-22T05:55:08;4.50;99.90
5009;DHT22;2523;51.058;6.922;2023-11-22T06:07:41;4.30;99.90
5009;DHT22;2523;51.058;6.922;2023-11-22T06:10:07;4.30;99.90
5009;DHT22;2523;51.058;6.922;2023-11-22T06:12:32;4.20;99.90
5009;DHT22;2523;51.058;6.922;2023-11-22T06:25:39;4.10;99.90
5009;DHT22;2523;51.058;6.922;2023-11-22T06:31:45;4.10;99.90
5009;DHT22;2523;51.058;6.922;2023-11-22T06:34:11;4.10;99.90
5009;DHT22;2523;51.058;6.922;2023-11-22T06:36:38;4.10;99.90
5009;DHT22;2523;51.058;6.922;2023-11-22T06:39:07;4.10;99.90
5009;DHT22;2523;51.058;6.922;2023-11-22T06:41:34;4.00;99.90
5009;DHT22;2523;51.058;6.922;2023-11-22T06:44:00;4.00;99.90
5009;DHT22;2523;51.058;6.922;2023-11-22T06:46:26;4.00;99.90
5009;DHT22;2523;51.058;6.922;2023-11-22T06:48:51;4.00;99.90
5009;DHT22;2523;51.058;6.922;2023-11-22T06:51:17;4.00;99.90
5009;DHT22;2523;51.058;6.922;2023-11-22T06:53:44;4.00;99.90
5009;DHT22;2523;51.058;6.922;2023-11-22T06:56:11;3.90;99.90
5009;DHT22;2523;51.058;6.922;2023-11-22T06:58:36;4.00;99.90
5009;DHT22;2523;51.058;6.922;2023-11-22T07:01:02;4.00;99.90
5009;DHT22;2523;51.058;6.922;2023-11-22T07:03:28;4.00;99.90
5009;DHT22;2523;51.058;6.922;2023-11-22T07:05:54;4.00;99.90
5009;DHT22;2523;51.058;6.922;2023-11-22T07:08:19;4.00;99.90
5009;DHT22;2523;51.058;6.922;2023-11-22T07:10:45;3.90;99.90
5009;DHT22;2523;51.058;6.922;2023-11-22T07:13:11;3.90;99.90
5009;DHT22;2523;51.058;6.922;2023-11-22T07:19:07;4.00;99.90
5009;DHT22;2523;51.058;6.922;2023-11-22T07:21:33;4.00;99.90
5009;DHT22;2523;51.058;6.922;2023-11-22T07:23:59;3.90;99.90
5009;DHT22;2523;51.058;6.922;2023-11-22T07:26:25;4.00;99.90
5009;DHT22;2523;51.058;6.922;2023-11-22T07:28:53;4.00;99.90
5009;DHT22;2523;51.058;6.922;2023-11-22T07:31:20;4.00;99.90
5009;DHT22;2523;51.058;6.922;2023-11-22T07:33:46;4.00;99.90
5009;DHT22;2523;51.058;6.922;2023-11-22T07:36:12;4.00;99.90
5009;DHT22;2523;51.058;6.922;2023-11-22T07:38:41;4.00;99.90
5009;DHT22;2523;51.058;6.922;2023-11-22T07:41:08;4.10;99.90
5009;DHT22;2523;51.058;6.922;2023-11-22T07:43:34;4.10;99.90
5009;DHT22;2523;51.058;6.922;2023-11-22T07:49:40;4.10;99.90
5009;DHT22;2523;51.058;6.922;2023-11-22T07:52:09;4.10;99.90
5009;DHT22;2523;51.058;6.922;2023-11-22T07:54:39;4.20;99.90
5009;DHT22;2523;51.058;6.922;2023-11-22T07:57:06;4.20;99.90
5009;DHT22;2523;51.058;6.922;2023-11-22T07:59:33;4.30;99.90
5009;DHT22;2523;51.058;6.922;2023-11-22T08:01:58;4.40;99.90
5009;DHT22;2523;51.058;6.922;2023-11-22T08:04:29;4.50;99.90
5009;DHT22;2523;51.058;6.922;2023-11-22T08:06:57;4.60;99.90
5009;DHT22;2523;51.058;6.922;2023-11-22T08:09:23;4.70;99.90
5009;DHT22;2523;51.058;6.922;2023-11-22T08:11:49;4.80;99.90
5009;DHT22;2523;51.058;6.922;2023-11-22T08:14:18;4.90;99.90
5009;DHT22;2523;51.058;6.922;2023-11-22T08:16:47;5.20;99.90
5009;DHT22;2523;51.058;6.922;2023-11-22T08:19:13;5.40;99.90
5009;DHT22;2523;51.058;6.922;2023-11-22T08:21:38;5.60;99.90
5009;DHT22;2523;51.058;6.922;2023-11-22T08:24:04;5.90;99.90
5009;DHT22;2523;51.058;6.922;2023-11-22T08:26:30;6.10;99.90
5009;DHT22;2523;51.058;6.922;2023-11-22T08:28:56;6.30;99.90
5009;DHT22;2523;51.058;6.922;2023-11-22T08:31:22;6.60;99.90
5009;DHT22;2523;51.058;6.922;2023-11-22T08:33:47;6.70;99.90
5009;DHT22;2523;51.058;6.922;2023-11-22T08:36:13;7.00;99.90
5009;DHT22;2523;51.058;6.922;2023-11-22T08:38:38;7.10;99.90
5009;DHT22;2523;51.058;6.922;2023-11-22T08:41:07;7.20;99.90
5009;DHT22;2523;51.058;6.922;2023-11-22T08:43:33;7.20;99.90
5009;DHT22;2523;51.058;6.922;2023-11-22T08:46:00;7.30;99.90
5009;DHT22;2523;51.058;6.922;2023-11-22T08:48:30;7.30;99.90
5009;DHT22;2523;51.058;6.922;2023-11-22T08:50:56;7.20;99.90
5009;DHT22;2523;51.058;6.922;2023-11-22T08:53:23;7.10;99.90
5009;DHT22;2523;51.058;6.922;2023-11-22T08:55:48;7.30;99.90
5009;DHT22;2523;51.058;6.922;2023-11-22T08:58:17;7.30;99.90
5009;DHT22;2523;51.058;6.922;2023-11-22T09:00:44;7.60;99.90
5009;DHT22;2523;51.058;6.922;2023-11-22T09:03:11;7.70;99.90
5009;DHT22;2523;51.058;6.922;2023-11-22T09:09:15;7.70;99.90
5009;DHT22;2523;51.058;6.922;2023-11-22T09:11:42;7.70;99.90
5009;DHT22;2523;51.058;6.922;2023-11-22T09:14:07;7.70;99.90
5009;DHT22;2523;51.058;6.922;2023-11-22T09:16:38;7.70;99.90
5009;DHT22;2523;51.058;6.922;2023-11-22T09:19:04;8.50;99.90
5009;DHT22;2523;51.058;6.922;2023-11-22T09:21:32;9.30;99.90
5009;DHT22;2523;51.058;6.922;2023-11-22T09:23:58;10.00;99.90
5009;DHT22;2523;51.058;6.922;2023-11-22T09:35:36;16.20;17.70
5009;DHT22;2523;51.058;6.922;2023-11-22T09:38:04;15.90;17.90
5009;DHT22;2523;51.058;6.922;2023-11-22T09:40:34;15.70;16.90
5009;DHT22;2523;51.058;6.922;2023-11-22T09:43:02;15.30;16.60
5009;DHT22;2523;51.058;6.922;2023-11-22T09:45:29;14.70;16.00
5009;DHT22;2523;51.058;6.922;2023-11-22T09:47:56;14.10;17.50
5009;DHT22;2523;51.058;6.922;2023-11-22T09:54:00;14.30;15.70
5009;DHT22;2523;51.058;6.922;2023-11-22T09:56:33;13.90;16.90
5009;DHT22;2523;51.058;6.922;2023-11-22T09:59:00;13.90;16.40
5009;DHT22;2523;51.058;6.922;2023-11-22T10:01:29;14.00;16.20
5009;DHT22;2523;51.058;6.922;2023-11-22T10:04:05;14.40;15.80
5009;DHT22;2523;51.058;6.922;2023-11-22T10:06:33;14.30;13.30
5009;DHT22;2523;51.058;6.922;2023-11-22T10:09:02;14.10;12.00
5009;DHT22;2523;51.058;6.922;2023-11-22T10:11:32;13.00;12.90
5009;DHT22;2523;51.058;6.922;2023-11-22T10:13:58;11.90;14.90
5009;DHT22;2523;51.058;6.922;2023-11-22T10:16:24;11.40;16.30
5009;DHT22;2523;51.058;6.922;2023-11-22T10:18:50;11.30;17.90
5009;DHT22;2523;51.058;6.922;2023-11-22T10:21:28;11.30;21.00
5009;DHT22;2523;51.058;6.922;2023-11-22T10:24:03;11.00;27.10
5009;DHT22;2523;51.058;6.922;2023-11-22T10:26:29;11.00;23.60
5009;DHT22;2523;51.058;6.922;2023-11-22T10:28:56;11.00;20.70
5009;DHT22;2523;51.058;6.922;2023-11-22T10:31:23;11.10;20.80
5009;DHT22;2523;51.058;6.922;2023-11-22T10:33:50;11.30;18.00
5009;DHT22;2523;51.058;6.922;2023-11-22T10:36:17;11.40;20.40
5009;DHT22;2523;51.058;6.922;2023-11-22T10:38:46;11.50;17.00
5009;DHT22;2523;51.058;6.922;2023-11-22T10:41:12;11.70;15.70
5009;DHT22;2523;51.058;6.922;2023-11-22T10:43:39;11.80;15.30
5009;DHT22;2523;51.058;6.922;2023-11-22T10:46:07;11.70;14.80
5009;DHT22;2523;51.058;6.922;2023-11-22T10:48:35;11.90;15.00
5009;DHT22;2523;51.058;6.922;2023-11-22T10:51:03;11.80;14.50
5009;DHT22;2523;51.058;6.922;2023-11-22T10:53:37;11.70;16.00
5009;DHT22;2523;51.058;6.922;2023-11-22T10:56:11;12.20;15.50
5009;DHT22;2523;51.058;6.922;2023-11-22T10:58:51;13.10;12.30
5009;DHT22;2523;51.058;6.922;2023-11-22T11:01:18;14.20;9.90
5009;DHT22;2523;51.058;6.922;2023-11-22T11:04:13;14.20;11.20
5009;DHT22;2523;51.058;6.922;2023-11-22T11:06:44;14.50;11.00
5009;DHT22;2523;51.058;6.922;2023-11-22T11:09:12;14.90;9.90
5009;DHT22;2523;51.058;6.922;2023-11-22T11:11:40;15.60;9.00
5009;DHT22;2523;51.058;6.922;2023-11-22T11:14:08;15.90;4.30
5009;DHT22;2523;51.058;6.922;2023-11-22T11:16:38;16.20;5.00
5009;DHT22;2523;51.058;6.922;2023-11-22T11:19:07;16.50;5.80
5009;DHT22;2523;51.058;6.922;2023-11-22T11:21:36;16.50;5.80
5009;DHT22;2523;51.058;6.922;2023-11-22T11:24:01;16.90;6.10
5009;DHT22;2523;51.058;6.922;2023-11-22T11:26:33;16.00;6.90
5009;DHT22;2523;51.058;6.922;2023-11-22T11:29:02;15.60;7.70
5009;DHT22;2523;51.058;6.922;2023-11-22T11:31:34;15.30;7.40
5009;DHT22;2523;51.058;6.922;2023-11-22T11:34:06;14.80;7.70
5009;DHT22;2523;51.058;6.922;2023-11-22T11:36:32;14.40;8.60
5009;DHT22;2523;51.058;6.922;2023-11-22T11:38:59;14.40;7.60
5009;DHT22;2523;51.058;6.922;2023-11-22T11:47:24;13.70;6.60
5009;DHT22;2523;51.058;6.922;2023-11-22T11:49:50;13.00;8.00
5009;DHT22;2523;51.058;6.922;2023-11-22T11:52:16;12.60;8.00
5009;DHT22;2523;51.058;6.922;2023-11-22T11:54:41;11.80;8.40
5009;DHT22;2523;51.058;6.922;2023-11-22T11:57:07;11.30;9.40
5009;DHT22;2523;51.058;6.922;2023-11-22T11:59:33;11.20;10.90
5009;DHT22;2523;51.058;6.922;2023-11-22T12:02:00;11.10;12.10
5009;DHT22;2523;51.058;6.922;2023-11-22T12:04:26;10.90;11.60
5009;DHT22;2523;51.058;6.922;2023-11-22T12:06:51;10.70;12.10
5009;DHT22;2523;51.058;6.922;2023-11-22T12:09:26;10.50;14.10
5009;DHT22;2523;51.058;6.922;2023-11-22T12:11:54;10.30;14.00
5009;DHT22;2523;51.058;6.922;2023-11-22T12:14:25;10.30;13.00
5009;DHT22;2523;51.058;6.922;2023-11-22T12:16:52;10.50;12.50
5009;DHT22;2523;51.058;6.922;2023-11-22T12:19:28;10.40;10.60
5009;DHT22;2523;51.058;6.922;2023-11-22T12:21:56;10.30;9.90
5009;DHT22;2523;51.058;6.922;2023-11-22T12:24:22;10.20;11.70
5009;DHT22;2523;51.058;6.922;2023-11-22T12:26:48;10.00;12.00
5009;DHT22;2523;51.058;6.922;2023-11-22T12:29:16;9.80;15.20
5009;DHT22;2523;51.058;6.922;2023-11-22T12:31:50;9.60;17.80
5009;DHT22;2523;51.058;6.922;2023-11-22T12:34:18;9.30;19.20
5009;DHT22;2523;51.058;6.922;2023-11-22T12:36:45;9.30;36.40
5009;DHT22;2523;51.058;6.922;2023-11-22T12:39:13;9.20;22.80
5009;DHT22;2523;51.058;6.922;2023-11-22T12:41:47;9.20;28.90
5009;DHT22;2523;51.058;6.922;2023-11-22T12:44:13;9.70;23.30
5009;DHT22;2523;51.058;6.922;2023-11-22T12:49:25;11.80;17.60
5009;DHT22;2523;51.058;6.922;2023-11-22T12:51:57;12.50;13.50
5009;DHT22;2523;51.058;6.922;2023-11-22T12:54:22;12.50;12.30
5009;DHT22;2523;51.058;6.922;2023-11-22T12:56:52;11.80;10.40
5009;DHT22;2523;51.058;6.922;2023-11-22T12:59:23;11.70;9.90
5009;DHT22;2523;51.058;6.922;2023-11-22T13:01:49;11.50;11.10
5009;DHT22;2523;51.058;6.922;2023-11-22T13:04:14;11.30;11.80
5009;DHT22;2523;51.058;6.922;2023-11-22T13:06:41;10.90;12.20
5009;DHT22;2523;51.058;6.922;2023-11-22T13:09:07;10.20;15.30
5009;DHT22;2523;51.058;6.922;2023-11-22T13:11:40;9.70;13.60
5009;DHT22;2523;51.058;6.922;2023-11-22T13:14:05;9.60;15.10
5009;DHT22;2523;51.058;6.922;2023-11-22T13:16:31;9.30;14.50
5009;DHT22;2523;51.058;6.922;2023-11-22T13:18:59;9.30;17.80
5009;DHT22;2523;51.058;6.922;2023-11-22T13:21:25;9.30;18.20
5009;DHT22;2523;51.058;6.922;2023-11-22T13:23:50;9.20;15.80
5009;DHT22;2523;51.058;6.922;2023-11-22T13:26:16;9.10;16.20
5009;DHT22;2523;51.058;6.922;2023-11-22T13:28:42;9.00;23.00
5009;DHT22;2523;51.058;6.922;2023-11-22T13:31:07;9.20;18.00
5009;DHT22;2523;51.058;6.922;2023-11-22T13:33:34;9.40;16.50
5009;DHT22;2523;51.058;6.922;2023-11-22T13:35:59;9.50;17.40
5009;DHT22;2523;51.058;6.922;2023-11-22T13:38:25;9.40;14.40
5009;DHT22;2523;51.058;6.922;2023-11-22T13:40:51;9.40;18.10
5009;DHT22;2523;51.058;6.922;2023-11-22T13:43:16;9.40;16.80
5009;DHT22;2523;51.058;6.922;2023-11-22T13:45:43;9.60;15.30
5009;DHT22;2523;51.058;6.922;2023-11-22T13:48:11;9.70;13.00
5009;DHT22;2523;51.058;6.922;2023-11-22T13:50:37;9.90;19.50
5009;DHT22;2523;51.058;6.922;2023-11-22T13:53:03;9.90;17.00
5009;DHT22;2523;51.058;6.922;2023-11-22T13:55:30;9.80;20.30
5009;DHT22;2523;51.058;6.922;2023-11-22T13:57:57;9.70;19.20
5009;DHT22;2523;51.058;6.922;2023-11-22T14:00:25;9.50;17.80
5009;DHT22;2523;51.058;6.922;2023-11-22T14:02:56;9.20;22.50
5009;DHT22;2523;51.058;6.922;2023-11-22T14:05:23;9.00;99.90
5009;DHT22;2523;51.058;6.922;2023-11-22T14:07:48;8.90;60.60
5009;DHT22;2523;51.058;6.922;2023-11-22T14:10:14;8.70;65.00
5009;DHT22;2523;51.058;6.922;2023-11-22T14:12:42;8.60;91.70
5009;DHT22;2523;51.058;6.922;2023-11-22T14:15:10;8.50;99.90
5009;DHT22;2523;51.058;6.922;2023-11-22T14:17:35;8.50;99.90
5009;DHT22;2523;51.058;6.922;2023-11-22T14:20:04;8.40;99.90
5009;DHT22;2523;51.058;6.922;2023-11-22T14:22:30;8.40;99.90
5009;DHT22;2523;51.058;6.922;2023-11-22T14:24:57;8.30;99.90
5009;DHT22;2523;51.058;6.922;2023-11-22T14:27:22;8.30;99.90
5009;DHT22;2523;51.058;6.922;2023-11-22T14:29:48;8.20;99.90
5009;DHT22;2523;51.058;6.922;2023-11-22T14:32:16;8.10;99.90
5009;DHT22;2523;51.058;6.922;2023-11-22T14:34:42;8.10;99.90
5009;DHT22;2523;51.058;6.922;2023-11-22T14:37:09;7.90;99.90
5009;DHT22;2523;51.058;6.922;2023-11-22T14:39:35;7.80;99.90
5009;DHT22;2523;51.058;6.922;2023-11-22T14:42:01;7.80;99.90
5009;DHT22;2523;51.058;6.922;2023-11-22T14:44:26;7.70;99.90
5009;DHT22;2523;51.058;6.922;2023-11-22T14:46:52;7.60;99.90
5009;DHT22;2523;51.058;6.922;2023-11-22T14:49:17;7.60;99.90
5009;DHT22;2523;51.058;6.922;2023-11-22T14:51:44;7.50;99.90
5009;DHT22;2523;51.058;6.922;2023-11-22T14:54:10;7.50;99.90
5009;DHT22;2523;51.058;6.922;2023-11-22T14:56:35;7.50;99.90
5009;DHT22;2523;51.058;6.922;2023-11-22T14:59:02;7.50;99.90
5009;DHT22;2523;51.058;6.922;2023-11-22T15:01:28;7.40;99.90
5009;DHT22;2523;51.058;6.922;2023-11-22T15:03:54;7.40;99.90
5009;DHT22;2523;51.058;6.922;2023-11-22T15:06:20;7.30;99.90
5009;DHT22;2523;51.058;6.922;2023-11-22T15:08:46;7.30;99.90
5009;DHT22;2523;51.058;6.922;2023-11-22T15:11:12;7.20;99.90
5009;DHT22;2523;51.058;6.922;2023-11-22T15:13:40;7.20;99.90
5009;DHT22;2523;51.058;6.922;2023-11-22T15:16:06;7.10;99.90
5009;DHT22;2523;51.058;6.922;2023-11-22T15:18:31;7.10;99.90
5009;DHT22;2523;51.058;6.922;2023-11-22T15:20:57;7.00;99.90
5009;DHT22;2523;51.058;6.922;2023-11-22T15:23:23;7.10;99.90
5009;DHT22;2523;51.058;6.922;2023-11-22T15:25:48;7.00;99.90
5009;DHT22;2523;51.058;6.922;2023-11-22T15:28:14;7.00;99.90
5009;DHT22;2523;51.058;6.922;2023-11-22T15:30:47;7.00;99.90
5009;DHT22;2523;51.058;6.922;2023-11-22T15:33:17;6.90;99.90
5009;DHT22;2523;51.058;6.922;2023-11-22T15:35:43;7.00;99.90
5009;DHT22;2523;51.058;6.922;2023-11-22T15:38:09;6.90;99.90
5009;DHT22;2523;51.058;6.922;2023-11-22T15:40:35;6.90;99.90
5009;DHT22;2523;51.058;6.922;2023-11-22T15:43:01;6.90;99.90
5009;DHT22;2523;51.058;6.922;2023-11-22T15:45:27;6.90;99.90
5009;DHT22;2523;51.058;6.922;2023-11-22T15:47:52;6.90;99.90
5009;DHT22;2523;51.058;6.922;2023-11-22T15:50:18;6.90;99.90
5009;DHT22;2523;51.058;6.922;2023-11-22T15:52:43;6.80;99.90
5009;DHT22;2523;51.058;6.922;2023-11-22T15:55:09;6.80;99.90
5009;DHT22;2523;51.058;6.922;2023-11-22T15:57:35;6.80;99.90
5009;DHT22;2523;51.058;6.922;2023-11-22T16:00:01;6.80;99.90
5009;DHT22;2523;51.058;6.922;2023-11-22T16:02:29;6.80;99.90
5009;DHT22;2523;51.058;6.922;2023-11-22T16:04:55;6.70;99.90
5009;DHT22;2523;51.058;6.922;2023-11-22T16:07:20;6.70;99.90
5009;DHT22;2523;51.058;6.922;2023-11-22T16:09:47;6.70;99.90
5009;DHT22;2523;51.058;6.922;2023-11-22T16:12:12;6.70;99.90
5009;DHT22;2523;51.058;6.922;2023-11-22T16:14:45;6.70;99.90
5009;DHT22;2523;51.058;6.922;2023-11-22T16:17:10;6.70;99.90
5009;DHT22;2523;51.058;6.922;2023-11-22T16:19:36;6.70;99.90
5009;DHT22;2523;51.058;6.922;2023-11-22T16:22:02;6.70;99.90
5009;DHT22;2523;51.058;6.922;2023-11-22T16:24:28;6.70;99.90
5009;DHT22;2523;51.058;6.922;2023-11-22T16:26:55;6.70;99.90
5009;DHT22;2523;51.058;6.922;2023-11-22T16:29:21;6.60;99.90
5009;DHT22;2523;51.058;6.922;2023-11-22T16:31:46;6.60;99.90
5009;DHT22;2523;51.058;6.922;2023-11-22T16:34:13;6.60;99.90
5009;DHT22;2523;51.058;6.922;2023-11-22T16:36:39;6.60;99.90
5009;DHT22;2523;51.058;6.922;2023-11-22T16:39:05;6.60;99.90
5009;DHT22;2523;51.058;6.922;2023-11-22T16:41:33;6.50;99.90
5009;DHT22;2523;51.058;6.922;2023-11-22T16:43:59;6.60;99.90
5009;DHT22;2523;51.058;6.922;2023-11-22T16:46:26;6.60;99.90
5009;DHT22;2523;51.058;6.922;2023-11-22T16:48:54;6.60;99.90
5009;DHT22;2523;51.058;6.922;2023-11-22T16:51:20;6.60;99.90
5009;DHT22;2523;51.058;6.922;2023-11-22T16:53:46;6.60;99.90
5009;DHT22;2523;51.058;6.922;2023-11-22T16:56:11;6.60;99.90
5009;DHT22;2523;51.058;6.922;2023-11-22T16:58:37;6.60;99.90
5009;DHT22;2523;51.058;6.922;2023-11-22T17:01:05;6.60;99.90
5009;DHT22;2523;51.058;6.922;2023-11-22T17:03:30;6.60;99.90
5009;DHT22;2523;51.058;6.922;2023-11-22T17:05:56;6.70;99.90
5009;DHT22;2523;51.058;6.922;2023-11-22T17:08:22;6.70;99.90
5009;DHT22;2523;51.058;6.922;2023-11-22T17:10:48;6.70;99.90
5009;DHT22;2523;51.058;6.922;2023-11-22T17:13:14;6.60;99.90
5009;DHT22;2523;51.058;6.922;2023-11-22T17:15:43;6.70;99.90
5009;DHT22;2523;51.058;6.922;2023-11-22T17:18:09;6.70;99.90
5009;DHT22;2523;51.058;6.922;2023-11-22T17:20:34;6.70;99.90
5009;DHT22;2523;51.058;6.922;2023-11-22T17:23:00;6.60;99.90
5009;DHT22;2523;51.058;6.922;2023-11-22T17:25:26;6.50;99.90
5009;DHT22;2523;51.058;6.922;2023-11-22T17:27:51;6.60;99.90
5009;DHT22;2523;51.058;6.922;2023-11-22T17:30:17;6.50;99.90
5009;DHT22;2523;51.058;6.922;2023-11-22T17:32:43;6.50;99.90
5009;DHT22;2523;51.058;6.922;2023-11-22T17:35:10;6.40;99.90
5009;DHT22;2523;51.058;6.922;2023-11-22T17:37:36;6.40;99.90
5009;DHT22;2523;51.058;6.922;2023-11-22T17:40:02;6.40;99.90
5009;DHT22;2523;51.058;6.922;2023-11-22T17:42:28;6.40;99.90
5009;DHT22;2523;51.058;6.922;2023-11-22T17:44:54;6.40;99.90
5009;DHT22;2523;51.058;6.922;2023-11-22T17:47:20;6.30;99.90
5009;DHT22;2523;51.058;6.922;2023-11-22T17:49:47;6.30;99.90
5009;DHT22;2523;51.058;6.922;2023-11-22T17:52:18;6.30;99.90
5009;DHT22;2523;51.058;6.922;2023-11-22T17:54:44;6.40;99.90